This is the latest recevied weather packets stored in our database for station/object DL8NDG-13. If no packets are shown the sender has not sent any weather packets the latest 10 day(s).
| Time | Temp. | Humidity | Pressure | Rain* | Wind** | Luminosity | Snow |
|---|---|---|---|---|---|---|---|
| 1777764664 | 10° C | 75% | 1015.2 hPa | 0 mm | - | 0 W/m² | - |
| 1777763759 | 10.56° C | 74% | 1015.2 hPa | 0 mm | - | 0 W/m² | - |
| 1777762856 | 10.56° C | 72% | 1015.4 hPa | 0 mm | - | 0 W/m² | - |
| 1777760148 | 11.67° C | 70% | 1015.4 hPa | 0 mm | - | 0 W/m² | - |
| 1777757463 | 12.78° C | 65% | 1015.5 hPa | 0 mm | - | 0 W/m² | - |
| 1777756550 | 13.33° C | 64% | 1015.5 hPa | 0 mm | - | 0 W/m² | - |
| 1777752943 | 15° C | 54% | 1015.9 hPa | 0 mm | - | 0 W/m² | - |
| 1777747533 | 19.44° C | 52% | 1015.5 hPa | 0 mm | - | 0 W/m² | - |
| 1777746695 | 21.11° C | 48% | 1015.5 hPa | 0 mm | - | 0 W/m² | - |
| 1777738528 | 25.56° C | 28% | 1016.2 hPa | 0 mm | - | 132 W/m² | - |
| 1777736718 | 26.67° C | 26% | 1016.5 hPa | 0 mm | - | 290 W/m² | - |
| 1777734014 | 26.67° C | 23% | 1016.8 hPa | 0 mm | - | 547 W/m² | - |
| 1777733114 | 26.67° C | 24% | 1016.9 hPa | 0 mm | - | 628 W/m² | - |
| 1777724155 | 25.56° C | 26% | 1019.1 hPa | 0 mm | - | 793 W/m² | - |
| 1777723252 | 25.56° C | 27% | 1019.4 hPa | 0 mm | - | 766 W/m² | - |
| 1777722341 | 25.56° C | 29% | 1019.5 hPa | 0 mm | - | 796 W/m² | - |
| 1777719633 | 24.44° C | 31% | 1020.1 hPa | 0 mm | - | 840 W/m² | - |
| 1777711529 | 19.44° C | 48% | 1021.8 hPa | 0 mm | - | 47 W/m² | - |
| 1777698056 | 5° C | 87% | 1023 hPa | 0 mm | - | 23 W/m² | - |
| 1777690845 | 5.56° C | 83% | 1023.1 hPa | 0 mm | - | 0 W/m² | - |
| 1777688135 | 6.11° C | 82% | 1023.3 hPa | 0 mm | - | 0 W/m² | - |
| 1777678212 | 8.89° C | 76% | 1023.7 hPa | 0 mm | - | 0 W/m² | - |
| 1777677308 | 8.89° C | 74% | 1023.9 hPa | 0 mm | - | 0 W/m² | - |
| 1777674603 | 10° C | 72% | 1024 hPa | 0 mm | - | 0 W/m² | - |
| 1777670160 | 11.11° C | 71% | 1023.9 hPa | 0 mm | - | 0 W/m² | - |
* Rain latest hour (hover to see other rain measurements)
** Current wind speed in m/s (hover to see current wind gust speed)